Terminal Aerodrome Forecast
Issued by NWS

Home | Current Version | Previous Version | Text Only | Print | Product List | Glossary On
Versions: 1 2 3 4 5 6 7 8 9 10 11 12 13
000
FTUS46 KEKA 280534
TAFCEC
TAF
KCEC 280534Z 2806/2906 08005KT P6SM SCT030 OVC045
     FM280800 05003KT P6SM -RA SCT025 OVC035
     FM281800 33006KT P6SM FEW025 SCT035 BKN100=

USA.gov is the U.S. government's official web portal to all federal, state and local government web resources and services.